createdAt,value
2023-02-27T05:12:26.561Z,1.89
2023-02-27T05:14:35.487Z,2.12
2023-02-27T05:16:42.804Z,2.31
2023-02-27T05:18:45.847Z,2.46
2023-02-27T05:20:58.067Z,2.55
2023-02-27T05:23:09.474Z,2.66
2023-02-27T05:25:16.732Z,2.74
2023-02-27T05:27:32.215Z,2.79
2023-02-27T05:29:42.234Z,2.84
2023-02-27T05:31:52.667Z,2.87
2023-02-27T05:34:00.157Z,2.92
2023-02-27T05:36:09.876Z,2.93
2023-02-27T05:38:19.757Z,2.93
2023-02-27T05:40:26.411Z,2.95
2023-02-27T05:42:35.362Z,2.92
2023-02-27T05:44:43.715Z,2.96
2023-02-27T05:46:54.571Z,2.98
2023-02-27T05:49:01.822Z,3.00
2023-02-27T05:51:08.105Z,3.02
2023-02-27T05:53:17.709Z,3.06
2023-02-27T05:55:25.668Z,3.06
2023-02-27T05:57:35.052Z,3.07
2023-02-27T05:59:43.521Z,3.10
2023-02-27T06:01:46.665Z,3.12
2023-02-27T06:03:49.514Z,3.13
2023-02-27T06:05:54.353Z,3.15
2023-02-27T06:07:57.420Z,3.14
2023-02-27T06:10:00.491Z,3.11
2023-02-27T06:12:03.834Z,3.08
2023-02-27T06:14:07.993Z,3.08
2023-02-27T06:16:12.360Z,3.15
2023-02-27T06:18:17.163Z,3.15
2023-02-27T06:20:19.960Z,3.15
2023-02-27T06:22:22.839Z,3.18
2023-02-27T06:24:26.719Z,3.18
2023-02-27T06:26:29.768Z,3.21
2023-02-27T06:28:32.646Z,3.24
2023-02-27T06:30:37.166Z,3.24
2023-02-27T06:32:39.909Z,3.24
2023-02-27T06:34:42.893Z,3.16
2023-02-27T06:36:45.801Z,3.13
2023-02-27T06:38:48.525Z,3.12
2023-02-27T06:40:52.145Z,3.18
2023-02-27T06:42:54.923Z,3.25
2023-02-27T06:44:57.697Z,3.35
2023-02-27T06:47:02.066Z,3.37
2023-02-27T06:49:04.918Z,3.32
2023-02-27T06:51:07.865Z,3.29
2023-02-27T06:53:10.709Z,3.24
2023-02-27T06:55:13.533Z,3.27
2023-02-27T06:57:16.319Z,3.29
2023-02-27T06:59:19.587Z,3.30
2023-02-27T07:01:23.457Z,3.29
2023-02-27T07:03:27.981Z,3.27
2023-02-27T07:05:30.889Z,3.29
2023-02-27T07:07:37.749Z,3.27
2023-02-27T07:09:41.511Z,3.27
2023-02-27T07:11:44.443Z,3.25
2023-02-27T07:13:47.324Z,3.29
2023-02-27T07:15:52.314Z,3.30
2023-02-27T07:17:55.338Z,3.26
2023-02-27T07:19:59.522Z,3.29
2023-02-27T07:22:03.878Z,3.33
2023-02-27T07:24:07.123Z,3.34
2023-02-27T07:26:12.453Z,3.39
2023-02-27T07:28:15.421Z,3.47
2023-02-27T07:30:19.593Z,3.46
2023-02-27T07:32:22.684Z,3.42
2023-02-27T07:34:25.781Z,3.43
2023-02-27T07:36:38.340Z,3.43
2023-02-27T07:38:44.138Z,3.49
2023-02-27T07:40:46.994Z,3.45
2023-02-27T07:45:13.215Z,3.50
2023-02-27T07:47:17.703Z,3.58
2023-02-27T07:49:23.832Z,3.59
2023-02-27T07:51:27.065Z,3.66
2023-02-27T07:53:31.600Z,3.73
2023-02-27T07:55:34.817Z,3.78
2023-02-27T07:57:37.714Z,3.77
2023-02-27T07:59:40.485Z,3.79
2023-02-27T08:01:43.399Z,3.75
2023-02-27T08:03:46.380Z,3.75
2023-02-27T08:05:49.394Z,3.85
2023-02-27T08:07:52.214Z,3.90
2023-02-27T08:09:56.409Z,3.93
2023-02-27T08:11:59.704Z,3.89
2023-02-27T08:14:03.194Z,3.92
2023-02-27T08:16:07.306Z,3.98
2023-02-27T08:18:10.366Z,4.05
2023-02-27T08:20:14.622Z,4.02
2023-02-27T08:22:17.477Z,4.02
2023-02-27T08:24:20.356Z,4.07
2023-02-27T08:26:24.857Z,4.14
2023-02-27T08:28:28.692Z,4.15
2023-02-27T08:30:31.849Z,4.20
2023-02-27T08:32:35.114Z,4.27
2023-02-27T08:34:40.574Z,4.28
2023-02-27T08:36:44.956Z,4.27
2023-02-27T08:38:48.004Z,4.29
2023-02-27T08:40:53.447Z,4.30
2023-02-27T08:42:57.693Z,4.29
2023-02-27T08:45:00.714Z,4.29
2023-02-27T08:47:03.655Z,4.30
2023-02-27T08:49:06.850Z,4.29
2023-02-27T08:51:09.687Z,4.35
2023-02-27T08:53:13.056Z,4.42
2023-02-27T08:55:15.998Z,4.45
2023-02-27T08:57:18.902Z,4.46
2023-02-27T08:59:23.795Z,4.52
2023-02-27T09:01:29.832Z,4.55
2023-02-27T09:03:32.811Z,4.56
2023-02-27T09:05:37.591Z,4.63
2023-02-27T09:07:40.430Z,4.75
2023-02-27T09:09:43.151Z,4.85
2023-02-27T09:11:46.368Z,4.92
2023-02-27T09:13:49.101Z,4.94
2023-02-27T09:15:53.283Z,4.96
2023-02-27T09:18:00.282Z,4.94
2023-02-27T09:20:04.446Z,4.97
2023-02-27T09:22:07.263Z,4.93
2023-02-27T09:24:19.922Z,4.82
2023-02-27T09:26:39.717Z,4.80
2023-02-27T09:28:45.049Z,4.80
2023-02-27T09:30:48.164Z,4.79
2023-02-27T09:32:52.632Z,4.80
2023-02-27T09:35:03.077Z,4.87
2023-02-27T09:37:05.999Z,5.00
2023-02-27T09:39:12.421Z,5.09
2023-02-27T09:41:40.200Z,5.20
2023-02-27T09:43:46.839Z,5.28
2023-02-27T09:45:54.362Z,5.33
2023-02-27T09:48:04.759Z,5.40
2023-02-27T09:50:19.973Z,5.37
2023-02-27T09:52:22.859Z,5.39
2023-02-27T09:54:32.237Z,5.34
2023-02-27T09:56:41.115Z,5.34
2023-02-27T09:58:49.533Z,5.35
2023-02-27T10:00:59.447Z,5.36
2023-02-27T10:03:18.203Z,5.40
2023-02-27T10:05:31.253Z,5.46
2023-02-27T10:07:40.752Z,5.49
2023-02-27T10:09:53.441Z,5.52
2023-02-27T10:12:11.153Z,5.54
2023-02-27T10:14:26.918Z,5.58
2023-02-27T10:16:33.500Z,5.63
2023-02-27T10:18:48.823Z,5.57
2023-02-27T10:20:55.688Z,5.53
2023-02-27T10:23:02.729Z,5.50
2023-02-27T10:25:21.337Z,5.50
2023-02-27T10:27:32.466Z,5.53
2023-02-27T10:29:39.604Z,5.53
2023-02-27T10:31:43.287Z,5.52
2023-02-27T10:33:48.992Z,5.56
2023-02-27T10:35:53.869Z,5.58
2023-02-27T10:38:00.270Z,5.61
2023-02-27T10:40:06.194Z,5.64
2023-02-27T10:42:13.574Z,5.67
2023-02-27T10:44:18.733Z,5.72
2023-02-27T10:46:27.433Z,5.67
2023-02-27T10:48:32.698Z,5.64
2023-02-27T10:50:39.394Z,5.63
2023-02-27T10:52:50.136Z,5.65
2023-02-27T10:54:53.037Z,5.67
2023-02-27T10:56:58.065Z,5.61
2023-02-27T10:59:05.450Z,5.60
2023-02-27T11:01:10.284Z,5.59
2023-02-27T11:03:21.956Z,5.64
2023-02-27T11:05:29.418Z,5.73
2023-02-27T11:07:37.826Z,5.81
2023-02-27T11:09:40.656Z,5.83
2023-02-27T11:11:43.745Z,5.84
2023-02-27T11:13:46.485Z,5.90
2023-02-27T11:16:04.371Z,5.98
2023-02-27T11:18:27.209Z,5.98
2023-02-27T11:20:36.810Z,5.97
2023-02-27T11:22:42.142Z,5.96
2023-02-27T11:24:45.519Z,5.95
2023-02-27T11:26:57.322Z,5.94
2023-02-27T11:29:15.365Z,6.02
2023-02-27T11:31:23.254Z,6.17
2023-02-27T11:33:27.866Z,6.25
2023-02-27T11:35:33.372Z,6.29
2023-02-27T11:37:37.868Z,6.28
2023-02-27T11:39:51.337Z,6.22
2023-02-27T11:41:56.286Z,6.19
2023-02-27T11:44:01.010Z,6.23
2023-02-27T11:46:29.583Z,6.22
2023-02-27T11:48:33.683Z,6.12
2023-02-27T11:51:09.800Z,6.20
2023-02-27T11:53:33.228Z,6.26
2023-02-27T11:55:38.703Z,6.24
2023-02-27T11:57:46.262Z,6.22
2023-02-27T11:59:53.328Z,6.23
2023-02-27T12:02:03.177Z,6.19
2023-02-27T12:04:14.540Z,6.21
2023-02-27T12:06:21.747Z,6.25
2023-02-27T12:08:32.219Z,6.33
2023-02-27T12:10:48.517Z,6.41
2023-02-27T12:12:54.878Z,6.39
2023-02-27T12:15:06.439Z,6.36
2023-02-27T12:17:16.418Z,6.34
2023-02-27T12:19:23.788Z,6.34
2023-02-27T12:21:29.631Z,6.37
2023-02-27T12:23:38.134Z,6.38
2023-02-27T12:25:48.593Z,6.34
2023-02-27T12:27:56.906Z,6.40
2023-02-27T12:30:06.616Z,6.41
2023-02-27T12:32:19.095Z,6.37
2023-02-27T12:34:30.183Z,6.31
2023-02-27T12:36:33.213Z,6.30
2023-02-27T12:38:35.954Z,6.27
2023-02-27T12:40:47.177Z,6.31
2023-02-27T12:43:10.951Z,6.30
2023-02-27T12:45:58.829Z,6.30
2023-02-27T12:48:15.088Z,6.35
2023-02-27T12:50:19.933Z,6.30
2023-02-27T12:52:35.128Z,6.28
2023-02-27T12:54:47.971Z,6.30
2023-02-27T12:57:03.443Z,6.40
2023-02-27T12:59:13.760Z,6.43
2023-02-27T13:01:33.452Z,6.45
2023-02-27T13:03:47.119Z,6.48
2023-02-27T13:05:56.978Z,6.49
2023-02-27T13:08:10.378Z,6.43
2023-02-27T13:10:20.933Z,6.48
2023-02-27T13:12:34.878Z,6.47
2023-02-27T13:14:45.970Z,6.44
2023-02-27T13:16:56.276Z,6.41
2023-02-27T13:19:06.176Z,6.39
2023-02-27T13:21:13.857Z,6.43
2023-02-27T13:23:24.609Z,6.43
2023-02-27T13:25:30.964Z,6.45
2023-02-27T13:27:39.083Z,6.48
2023-02-27T13:29:47.608Z,6.52
2023-02-27T13:31:59.163Z,6.55
2023-02-27T13:34:09.814Z,6.53
2023-02-27T13:36:17.576Z,6.48
2023-02-27T13:38:34.224Z,6.46
2023-02-27T13:40:40.145Z,6.43
2023-02-27T13:42:57.848Z,6.47
2023-02-27T13:45:02.342Z,6.51
2023-02-27T13:47:41.040Z,6.53
2023-02-27T13:49:44.035Z,6.52
2023-02-27T13:51:47.805Z,6.51
2023-02-27T13:53:50.757Z,6.51
2023-02-27T13:55:57.677Z,6.46
2023-02-27T13:58:03.681Z,6.41
2023-02-27T14:00:19.017Z,6.39
2023-02-27T14:02:37.441Z,6.35
2023-02-27T14:04:52.672Z,6.28
2023-02-27T14:07:00.635Z,6.24
2023-02-27T14:09:14.300Z,6.20
2023-02-27T14:11:22.584Z,6.25
2023-02-27T14:14:04.571Z,6.31
2023-02-27T14:16:09.261Z,6.27
2023-02-27T14:18:52.431Z,6.18
2023-02-27T14:20:55.707Z,6.18
2023-02-27T14:23:18.654Z,6.13
2023-02-27T14:25:33.752Z,6.00
2023-02-27T14:27:47.725Z,5.94
2023-02-27T14:29:57.103Z,5.94
2023-02-27T14:32:03.017Z,5.97
2023-02-27T14:34:08.295Z,5.98
2023-02-27T14:36:18.167Z,6.02
2023-02-27T14:38:22.317Z,5.97
2023-02-27T14:40:32.406Z,6.03
2023-02-27T14:42:47.979Z,6.14
2023-02-27T14:44:54.754Z,6.23
2023-02-27T14:46:59.819Z,6.25
2023-02-27T14:49:04.612Z,6.17
2023-02-27T14:51:09.575Z,6.13
2023-02-27T14:53:24.324Z,6.08
2023-02-27T14:55:29.746Z,6.03
2023-02-27T14:57:32.756Z,5.97
2023-02-27T14:59:44.041Z,5.94
2023-02-27T15:01:48.516Z,5.90
2023-02-27T15:03:54.659Z,5.97
2023-02-27T15:06:01.188Z,6.00
2023-02-27T15:08:04.855Z,5.97
2023-02-27T15:10:10.856Z,5.93
2023-02-27T15:12:18.922Z,5.92
2023-02-27T15:14:26.677Z,5.84
2023-02-27T15:16:34.724Z,5.75
2023-02-27T15:18:43.852Z,5.69
2023-02-27T15:20:46.939Z,5.74
2023-02-27T15:22:49.882Z,5.75
2023-02-27T15:24:56.388Z,5.73
2023-02-27T15:27:01.652Z,5.73
2023-02-27T15:29:06.309Z,5.79
2023-02-27T15:31:13.497Z,5.88
2023-02-27T15:33:17.442Z,5.88
2023-02-27T15:35:24.743Z,5.82
2023-02-27T15:37:31.046Z,5.75
2023-02-27T15:39:34.436Z,5.79
2023-02-27T15:41:38.074Z,5.83
2023-02-27T15:43:42.084Z,5.81
2023-02-27T15:45:48.210Z,5.74
2023-02-27T15:47:51.300Z,5.72
2023-02-27T15:49:59.838Z,5.67
2023-02-27T15:52:13.320Z,5.65
2023-02-27T15:54:16.613Z,5.59
2023-02-27T15:56:25.439Z,5.59
2023-02-27T15:58:31.019Z,5.53
2023-02-27T16:00:36.438Z,5.50
2023-02-27T16:02:43.188Z,5.46
2023-02-27T16:04:47.538Z,5.42
2023-02-27T16:07:03.063Z,5.36
2023-02-27T16:09:20.492Z,5.35
2023-02-27T16:11:25.945Z,5.34
2023-02-27T16:13:34.920Z,5.29
2023-02-27T16:15:40.108Z,5.27
2023-02-27T16:17:54.457Z,5.21
2023-02-27T16:20:01.330Z,5.17
2023-02-27T16:22:07.662Z,5.17
2023-02-27T16:24:22.613Z,5.17
2023-02-27T16:26:31.697Z,5.15
2023-02-27T16:28:43.389Z,5.15
2023-02-27T16:30:46.548Z,5.12
2023-02-27T16:32:49.631Z,5.09
2023-02-27T16:34:52.962Z,4.97
2023-02-27T16:36:57.923Z,4.96
2023-02-27T16:39:00.689Z,4.99
2023-02-27T16:41:05.511Z,4.99
2023-02-27T16:43:08.377Z,5.00
2023-02-27T16:45:16.150Z,4.96
2023-02-27T16:47:19.007Z,4.97
2023-02-27T16:49:23.793Z,4.96
2023-02-27T16:51:30.343Z,4.94
2023-02-27T16:53:33.398Z,4.95
2023-02-27T16:55:40.812Z,4.90
2023-02-27T16:57:45.064Z,4.83
2023-02-27T16:59:47.760Z,4.79
2023-02-27T17:01:50.648Z,4.79
2023-02-27T17:03:53.968Z,4.77
2023-02-27T17:05:57.661Z,4.71
2023-02-27T17:08:00.621Z,4.71
2023-02-27T17:10:03.673Z,4.65
2023-02-27T17:12:06.847Z,4.68
2023-02-27T17:14:11.083Z,4.63
2023-02-27T17:16:15.420Z,4.63
2023-02-27T17:18:18.227Z,4.62
2023-02-27T17:20:21.515Z,4.67
2023-02-27T17:22:24.318Z,4.72
2023-02-27T17:24:27.298Z,4.68
2023-02-27T17:26:31.248Z,4.64
2023-02-27T17:28:34.035Z,4.62
2023-02-27T17:30:40.109Z,4.63
2023-02-27T17:32:42.955Z,4.66
2023-02-27T17:34:45.728Z,4.60
2023-02-27T17:36:49.976Z,4.54
2023-02-27T17:38:56.043Z,4.51
2023-02-27T17:40:58.896Z,4.53
2023-02-27T17:43:01.817Z,4.55
2023-02-27T17:45:06.374Z,4.58
2023-02-27T17:47:10.652Z,4.65
2023-02-27T17:49:14.545Z,4.67
2023-02-27T17:51:18.950Z,4.65
2023-02-27T17:53:22.065Z,4.64
2023-02-27T17:55:27.167Z,4.62
2023-02-27T17:57:30.129Z,4.58
2023-02-27T17:59:33.337Z,4.58
2023-02-27T18:01:36.714Z,4.53
2023-02-27T18:03:41.773Z,4.50
2023-02-27T18:05:49.513Z,4.49
2023-02-27T18:07:54.029Z,4.49
2023-02-27T18:09:58.304Z,4.46
2023-02-27T18:12:02.004Z,4.44
2023-02-27T18:14:06.134Z,4.44
2023-02-27T18:16:09.693Z,4.48
2023-02-27T18:18:13.782Z,4.49
2023-02-27T18:20:18.017Z,4.53
2023-02-27T18:22:21.746Z,4.54
2023-02-27T18:24:24.712Z,4.56
2023-02-27T18:26:32.710Z,4.53
2023-02-27T18:28:36.144Z,4.51
2023-02-27T18:30:40.354Z,4.55
2023-02-27T18:32:43.245Z,4.51
2023-02-27T18:34:46.245Z,4.45
2023-02-27T18:36:51.813Z,4.44
2023-02-27T18:38:54.651Z,4.45
2023-02-27T18:40:58.309Z,4.50
2023-02-27T18:43:01.149Z,4.46
2023-02-27T18:45:04.165Z,4.43
2023-02-27T18:47:07.943Z,4.38
2023-02-27T18:49:10.966Z,4.43
2023-02-27T18:51:15.996Z,4.44
2023-02-27T18:53:20.648Z,4.41
2023-02-27T18:55:23.628Z,4.42
2023-02-27T18:57:26.450Z,4.45
2023-02-27T18:59:29.284Z,4.44
2023-02-27T19:01:40.600Z,4.45
2023-02-27T19:03:45.971Z,4.45
2023-02-27T19:05:53.570Z,4.40
2023-02-27T19:07:59.622Z,4.40
2023-02-27T19:10:05.148Z,4.39
2023-02-27T19:12:36.303Z,4.41
2023-02-27T19:14:41.932Z,4.40
2023-02-27T19:16:46.200Z,4.42
2023-02-27T19:18:49.461Z,4.44
2023-02-27T19:20:52.544Z,4.40
2023-02-27T19:22:55.525Z,4.42
2023-02-27T19:24:58.439Z,4.38
2023-02-27T19:27:02.672Z,4.37
2023-02-27T19:29:07.231Z,4.39
2023-02-27T19:31:11.548Z,4.39
2023-02-27T19:33:14.482Z,4.34
2023-02-27T19:35:17.425Z,4.33
2023-02-27T19:37:20.435Z,4.34
2023-02-27T19:39:23.413Z,4.29
2023-02-27T19:41:26.422Z,4.28
2023-02-27T19:43:30.611Z,4.27
2023-02-27T19:45:34.698Z,4.24
2023-02-27T19:47:38.117Z,4.22
2023-02-27T19:49:41.010Z,4.24
2023-02-27T19:51:43.788Z,4.30
2023-02-27T19:53:48.393Z,4.29
2023-02-27T19:55:59.101Z,4.25
2023-02-27T19:58:01.937Z,4.24
2023-02-27T20:00:09.319Z,4.21
2023-02-27T20:02:13.195Z,4.21
2023-02-27T20:04:17.598Z,4.21
2023-02-27T20:06:23.682Z,4.19
2023-02-27T20:08:26.606Z,4.23
2023-02-27T20:10:29.480Z,4.23
2023-02-27T20:12:32.615Z,4.18
2023-02-27T20:14:35.347Z,4.16
2023-02-27T20:16:40.644Z,4.16
2023-02-27T20:18:44.661Z,4.18
2023-02-27T20:20:47.586Z,4.15
2023-02-27T20:22:52.401Z,4.18
2023-02-27T20:24:56.996Z,4.16
2023-02-27T20:27:00.346Z,4.20
2023-02-27T20:29:05.634Z,4.16
2023-02-27T20:31:09.683Z,4.09
2023-02-27T20:33:13.889Z,4.05
2023-02-27T20:35:16.893Z,4.05
2023-02-27T20:37:20.007Z,4.03
2023-02-27T20:39:23.068Z,4.01
2023-02-27T20:41:29.462Z,3.97
2023-02-27T20:43:32.670Z,3.97
2023-02-27T20:45:40.130Z,3.93
2023-02-27T20:47:42.890Z,3.99
2023-02-27T20:50:15.424Z,3.95
2023-02-27T20:52:18.313Z,3.97
2023-02-27T20:54:21.328Z,4.03
2023-02-27T20:56:25.811Z,4.08
2023-02-27T20:58:28.576Z,4.09
2023-02-27T21:00:31.355Z,4.03
2023-02-27T21:02:34.250Z,3.96
2023-02-27T21:04:47.039Z,3.95
2023-02-27T21:06:52.786Z,3.93
2023-02-27T21:08:58.451Z,3.93
2023-02-27T21:11:01.397Z,3.92
2023-02-27T21:13:07.509Z,3.88
2023-02-27T21:15:11.317Z,3.85
2023-02-27T21:17:14.755Z,3.84
2023-02-27T21:19:17.493Z,3.83
2023-02-27T21:21:23.321Z,3.80
2023-02-27T21:23:27.975Z,3.83
2023-02-27T21:25:31.100Z,3.78
2023-02-27T21:27:33.991Z,3.84
2023-02-27T21:29:36.992Z,3.83
2023-02-27T21:31:41.641Z,3.86
2023-02-27T21:33:44.712Z,3.87
2023-02-27T21:35:48.106Z,3.82
2023-02-27T21:37:51.239Z,3.86
2023-02-27T21:39:57.224Z,3.91
2023-02-27T21:42:00.732Z,3.87
2023-02-27T21:44:07.351Z,3.87
2023-02-27T21:46:12.694Z,3.91
2023-02-27T21:48:16.056Z,3.91
2023-02-27T21:50:21.737Z,3.93
2023-02-27T21:52:24.608Z,3.95
2023-02-27T21:54:27.389Z,3.97
2023-02-27T21:56:31.597Z,4.01
2023-02-27T21:58:35.044Z,4.01
2023-02-27T22:00:37.903Z,3.99
2023-02-27T22:02:40.985Z,4.04
2023-02-27T22:04:43.724Z,3.99
2023-02-27T22:06:46.950Z,4.00
2023-02-27T22:08:55.164Z,4.01
2023-02-27T22:10:58.777Z,4.07
2023-02-27T22:13:02.879Z,4.12
2023-02-27T22:15:07.283Z,4.12
